Springdale, Connecticut
Current Conditions -  °F | °C
As of 6:56 AM on Friday 31 Oct 2014 (Local Time) from KHPN Reporting Station
Broken Clouds Broken Clouds  
Wind Chill: 36°   Ceiling: 5000
Heat Index: 42°   Visibility: 10mi
Dew Point: 31°   Wind: 10mph
Humidity: 65%   Direction: 360°N
Pressure: 30"   Gusts: NA
Location:  41.1005°N, 73.521°W
Report Text: KHPN 311056Z 36009KT 10SM BKN050 06/M01 A3000 RMK AO2 SLP161 T00561006 $
Loading
Personal Weather Stations






























Interactive Weather Map
Tropical Storm Tracking
New forecast layout! Learn more

10-Day Weather Forecast

Advertisements
Track Severe Weather on mobile